sensor_id;sensor_type;location;lat;lon;timestamp;temperature;humidity
63976;DHT22;50167;47.958;21.780;2023-07-31T00:04:36;23.87;62.59
63976;DHT22;50167;47.958;21.780;2023-07-31T00:07:03;23.99;61.77
63976;DHT22;50167;47.958;21.780;2023-07-31T00:09:34;24.01;61.30
63976;DHT22;50167;47.958;21.780;2023-07-31T00:12:01;24.02;61.31
63976;DHT22;50167;47.958;21.780;2023-07-31T00:14:27;24.02;61.14
63976;DHT22;50167;47.958;21.780;2023-07-31T00:16:53;24.02;60.97
63976;DHT22;50167;47.958;21.780;2023-07-31T00:19:20;24.01;61.00
63976;DHT22;50167;47.958;21.780;2023-07-31T00:21:46;24.04;60.98
63976;DHT22;50167;47.958;21.780;2023-07-31T00:24:12;24.13;60.83
63976;DHT22;50167;47.958;21.780;2023-07-31T00:26:39;24.23;60.30
63976;DHT22;50167;47.958;21.780;2023-07-31T00:29:05;24.11;60.54
63976;DHT22;50167;47.958;21.780;2023-07-31T00:31:31;23.99;60.99
63976;DHT22;50167;47.958;21.780;2023-07-31T00:33:58;23.89;61.20
63976;DHT22;50167;47.958;21.780;2023-07-31T00:36:24;23.85;61.32
63976;DHT22;50167;47.958;21.780;2023-07-31T00:38:50;23.80;61.36
63976;DHT22;50167;47.958;21.780;2023-07-31T00:41:17;23.69;61.65
63976;DHT22;50167;47.958;21.780;2023-07-31T00:43:43;23.78;61.71
63976;DHT22;50167;47.958;21.780;2023-07-31T00:46:09;23.85;61.47
63976;DHT22;50167;47.958;21.780;2023-07-31T00:48:36;23.96;61.08
63976;DHT22;50167;47.958;21.780;2023-07-31T00:51:03;24.02;60.56
63976;DHT22;50167;47.958;21.780;2023-07-31T00:53:30;24.04;60.48
63976;DHT22;50167;47.958;21.780;2023-07-31T00:55:56;24.02;60.36
63976;DHT22;50167;47.958;21.780;2023-07-31T00:58:23;24.06;60.36
63976;DHT22;50167;47.958;21.780;2023-07-31T01:00:49;24.04;60.43
63976;DHT22;50167;47.958;21.780;2023-07-31T01:03:17;24.11;60.44
63976;DHT22;50167;47.958;21.780;2023-07-31T01:11:25;23.62;59.49
63976;DHT22;50167;47.958;21.780;2023-07-31T01:13:50;22.55;62.09
63976;DHT22;50167;47.958;21.780;2023-07-31T01:16:16;22.51;63.99
63976;DHT22;50167;47.958;21.780;2023-07-31T01:18:42;23.12;63.09
63976;DHT22;50167;47.958;21.780;2023-07-31T01:21:21;23.39;61.99
63976;DHT22;50167;47.958;21.780;2023-07-31T01:26:38;23.36;61.74
63976;DHT22;50167;47.958;21.780;2023-07-31T01:29:17;23.34;62.00
63976;DHT22;50167;47.958;21.780;2023-07-31T01:31:46;23.36;62.32
63976;DHT22;50167;47.958;21.780;2023-07-31T01:34:14;23.46;62.26
63976;DHT22;50167;47.958;21.780;2023-07-31T01:36:42;23.51;61.82
63976;DHT22;50167;47.958;21.780;2023-07-31T01:39:08;23.57;61.63
63976;DHT22;50167;47.958;21.780;2023-07-31T01:41:34;23.67;61.37
63976;DHT22;50167;47.958;21.780;2023-07-31T01:44:00;23.71;61.19
63976;DHT22;50167;47.958;21.780;2023-07-31T01:46:27;23.69;61.21
63976;DHT22;50167;47.958;21.780;2023-07-31T01:48:55;23.81;60.77
63976;DHT22;50167;47.958;21.780;2023-07-31T01:51:21;23.91;60.44
63976;DHT22;50167;47.958;21.780;2023-07-31T01:53:47;23.88;60.67
63976;DHT22;50167;47.958;21.780;2023-07-31T01:56:13;23.85;60.79
63976;DHT22;50167;47.958;21.780;2023-07-31T01:58:40;23.85;61.05
63976;DHT22;50167;47.958;21.780;2023-07-31T02:01:06;23.84;61.31
63976;DHT22;50167;47.958;21.780;2023-07-31T02:03:32;23.81;61.18
63976;DHT22;50167;47.958;21.780;2023-07-31T02:05:59;23.87;61.01
63976;DHT22;50167;47.958;21.780;2023-07-31T02:08:25;23.87;60.83
63976;DHT22;50167;47.958;21.780;2023-07-31T02:10:52;23.78;61.08
63976;DHT22;50167;47.958;21.780;2023-07-31T02:13:18;23.69;61.50
63976;DHT22;50167;47.958;21.780;2023-07-31T02:15:45;23.61;61.62
63976;DHT22;50167;47.958;21.780;2023-07-31T02:18:11;23.43;62.19
63976;DHT22;50167;47.958;21.780;2023-07-31T02:20:37;23.41;62.45
63976;DHT22;50167;47.958;21.780;2023-07-31T02:23:03;23.40;62.29
63976;DHT22;50167;47.958;21.780;2023-07-31T02:25:29;23.37;62.39
63976;DHT22;50167;47.958;21.780;2023-07-31T02:27:56;23.46;62.44
63976;DHT22;50167;47.958;21.780;2023-07-31T02:30:22;23.56;62.07
63976;DHT22;50167;47.958;21.780;2023-07-31T02:32:48;23.54;62.00
63976;DHT22;50167;47.958;21.780;2023-07-31T02:35:15;23.53;61.97
63976;DHT22;50167;47.958;21.780;2023-07-31T02:37:42;23.57;62.09
63976;DHT22;50167;47.958;21.780;2023-07-31T02:40:10;23.53;62.28
63976;DHT22;50167;47.958;21.780;2023-07-31T02:42:38;23.57;61.98
63976;DHT22;50167;47.958;21.780;2023-07-31T02:45:05;23.51;61.92
63976;DHT22;50167;47.958;21.780;2023-07-31T02:47:32;23.60;61.99
63976;DHT22;50167;47.958;21.780;2023-07-31T02:49:58;23.83;61.69
63976;DHT22;50167;47.958;21.780;2023-07-31T02:52:26;23.85;61.33
63976;DHT22;50167;47.958;21.780;2023-07-31T02:54:52;23.87;61.17
63976;DHT22;50167;47.958;21.780;2023-07-31T02:57:18;23.88;61.28
63976;DHT22;50167;47.958;21.780;2023-07-31T02:59:44;23.85;61.16
63976;DHT22;50167;47.958;21.780;2023-07-31T03:02:11;23.84;61.41
63976;DHT22;50167;47.958;21.780;2023-07-31T03:04:39;23.85;61.32
63976;DHT22;50167;47.958;21.780;2023-07-31T03:07:05;23.78;61.45
63976;DHT22;50167;47.958;21.780;2023-07-31T03:09:32;23.71;61.50
63976;DHT22;50167;47.958;21.780;2023-07-31T03:11:58;23.61;61.49
63976;DHT22;50167;47.958;21.780;2023-07-31T03:14:24;23.57;61.70
63976;DHT22;50167;47.958;21.780;2023-07-31T03:16:53;23.53;61.76
63976;DHT22;50167;47.958;21.780;2023-07-31T03:19:19;23.39;62.00
63976;DHT22;50167;47.958;21.780;2023-07-31T03:21:45;23.22;62.29
63976;DHT22;50167;47.958;21.780;2023-07-31T03:24:11;23.15;62.53
63976;DHT22;50167;47.958;21.780;2023-07-31T03:26:38;23.16;62.67
63976;DHT22;50167;47.958;21.780;2023-07-31T03:29:08;23.19;62.35
63976;DHT22;50167;47.958;21.780;2023-07-31T03:31:34;23.20;62.10
63976;DHT22;50167;47.958;21.780;2023-07-31T03:34:00;23.19;62.04
63976;DHT22;50167;47.958;21.780;2023-07-31T03:36:27;23.06;62.31
63976;DHT22;50167;47.958;21.780;2023-07-31T03:38:53;22.96;62.70
63976;DHT22;50167;47.958;21.780;2023-07-31T03:41:19;22.92;63.16
63976;DHT22;50167;47.958;21.780;2023-07-31T03:43:49;22.96;63.29
63976;DHT22;50167;47.958;21.780;2023-07-31T03:46:18;23.03;63.16
63976;DHT22;50167;47.958;21.780;2023-07-31T03:48:44;23.02;63.09
63976;DHT22;50167;47.958;21.780;2023-07-31T03:51:10;23.10;63.27
63976;DHT22;50167;47.958;21.780;2023-07-31T03:53:37;23.20;62.94
63976;DHT22;50167;47.958;21.780;2023-07-31T03:56:03;23.27;62.90
63976;DHT22;50167;47.958;21.780;2023-07-31T03:58:29;23.34;62.78
63976;DHT22;50167;47.958;21.780;2023-07-31T04:00:55;23.41;62.64
63976;DHT22;50167;47.958;21.780;2023-07-31T04:03:21;23.46;62.38
63976;DHT22;50167;47.958;21.780;2023-07-31T04:05:48;23.50;62.31
63976;DHT22;50167;47.958;21.780;2023-07-31T04:08:14;23.39;62.42
63976;DHT22;50167;47.958;21.780;2023-07-31T04:10:42;23.30;62.65
63976;DHT22;50167;47.958;21.780;2023-07-31T04:13:08;23.33;62.73
63976;DHT22;50167;47.958;21.780;2023-07-31T04:15:34;23.33;62.62
63976;DHT22;50167;47.958;21.780;2023-07-31T04:18:01;23.34;62.71
63976;DHT22;50167;47.958;21.780;2023-07-31T04:20:27;23.19;63.06
63976;DHT22;50167;47.958;21.780;2023-07-31T04:22:53;23.20;63.49
63976;DHT22;50167;47.958;21.780;2023-07-31T04:25:19;23.25;63.67
63976;DHT22;50167;47.958;21.780;2023-07-31T04:27:45;23.26;63.67
63976;DHT22;50167;47.958;21.780;2023-07-31T04:30:11;23.26;63.78
63976;DHT22;50167;47.958;21.780;2023-07-31T04:32:38;23.40;64.03
63976;DHT22;50167;47.958;21.780;2023-07-31T04:35:05;23.57;63.91
63976;DHT22;50167;47.958;21.780;2023-07-31T04:37:31;23.68;64.09
63976;DHT22;50167;47.958;21.780;2023-07-31T04:39:57;24.02;63.92
63976;DHT22;50167;47.958;21.780;2023-07-31T04:42:24;24.29;63.00
63976;DHT22;50167;47.958;21.780;2023-07-31T04:44:50;24.46;62.50
63976;DHT22;50167;47.958;21.780;2023-07-31T04:47:16;24.64;62.06
63976;DHT22;50167;47.958;21.780;2023-07-31T04:49:42;24.77;61.54
63976;DHT22;50167;47.958;21.780;2023-07-31T04:52:08;24.85;61.47
63976;DHT22;50167;47.958;21.780;2023-07-31T04:54:34;25.02;61.35
63976;DHT22;50167;47.958;21.780;2023-07-31T04:57:00;25.23;60.91
63976;DHT22;50167;47.958;21.780;2023-07-31T04:59:26;25.39;60.42
63976;DHT22;50167;47.958;21.780;2023-07-31T05:01:53;25.43;59.87
63976;DHT22;50167;47.958;21.780;2023-07-31T05:04:19;25.50;60.02
63976;DHT22;50167;47.958;21.780;2023-07-31T05:06:45;25.55;60.03
63976;DHT22;50167;47.958;21.780;2023-07-31T05:09:11;25.48;60.24
63976;DHT22;50167;47.958;21.780;2023-07-31T05:11:38;25.55;60.68
63976;DHT22;50167;47.958;21.780;2023-07-31T05:14:06;25.55;60.41
63976;DHT22;50167;47.958;21.780;2023-07-31T05:16:35;25.59;60.47
63976;DHT22;50167;47.958;21.780;2023-07-31T05:19:01;25.60;60.40
63976;DHT22;50167;47.958;21.780;2023-07-31T05:21:28;25.60;60.06
63976;DHT22;50167;47.958;21.780;2023-07-31T05:23:54;25.73;59.58
63976;DHT22;50167;47.958;21.780;2023-07-31T05:26:21;25.55;59.82
63976;DHT22;50167;47.958;21.780;2023-07-31T05:28:47;24.77;61.04
63976;DHT22;50167;47.958;21.780;2023-07-31T05:31:13;24.13;63.52
63976;DHT22;50167;47.958;21.780;2023-07-31T05:33:39;24.36;64.10
63976;DHT22;50167;47.958;21.780;2023-07-31T05:36:05;25.11;62.58
63976;DHT22;50167;47.958;21.780;2023-07-31T05:38:32;25.57;60.85
63976;DHT22;50167;47.958;21.780;2023-07-31T05:40:58;25.73;60.62
63976;DHT22;50167;47.958;21.780;2023-07-31T05:43:24;25.77;60.04
63976;DHT22;50167;47.958;21.780;2023-07-31T05:45:51;25.86;59.48
63976;DHT22;50167;47.958;21.780;2023-07-31T05:48:17;25.72;59.57
63976;DHT22;50167;47.958;21.780;2023-07-31T05:50:44;25.07;61.63
63976;DHT22;50167;47.958;21.780;2023-07-31T05:53:10;24.53;62.62
63976;DHT22;50167;47.958;21.780;2023-07-31T05:55:37;24.84;63.07
63976;DHT22;50167;47.958;21.780;2023-07-31T05:58:03;25.46;61.16
63976;DHT22;50167;47.958;21.780;2023-07-31T06:00:29;25.77;59.76
63976;DHT22;50167;47.958;21.780;2023-07-31T06:02:55;25.91;59.29
63976;DHT22;50167;47.958;21.780;2023-07-31T06:05:22;25.69;59.15
63976;DHT22;50167;47.958;21.780;2023-07-31T06:07:48;25.12;60.69
63976;DHT22;50167;47.958;21.780;2023-07-31T06:10:14;24.63;62.56
63976;DHT22;50167;47.958;21.780;2023-07-31T06:12:41;24.98;62.74
63976;DHT22;50167;47.958;21.780;2023-07-31T06:15:07;25.70;60.92
63976;DHT22;50167;47.958;21.780;2023-07-31T06:17:33;26.17;58.92
63976;DHT22;50167;47.958;21.780;2023-07-31T06:20:00;26.01;58.66
63976;DHT22;50167;47.958;21.780;2023-07-31T06:22:26;25.46;60.65
63976;DHT22;50167;47.958;21.780;2023-07-31T06:24:52;25.01;60.84
63976;DHT22;50167;47.958;21.780;2023-07-31T06:27:18;24.78;62.04
63976;DHT22;50167;47.958;21.780;2023-07-31T06:29:44;25.50;61.05
63976;DHT22;50167;47.958;21.780;2023-07-31T06:32:11;26.24;59.68
63976;DHT22;50167;47.958;21.780;2023-07-31T06:34:37;26.74;57.92
63976;DHT22;50167;47.958;21.780;2023-07-31T06:37:03;26.70;57.76
63976;DHT22;50167;47.958;21.780;2023-07-31T06:39:29;26.07;59.07
63976;DHT22;50167;47.958;21.780;2023-07-31T06:41:55;25.59;60.00
63976;DHT22;50167;47.958;21.780;2023-07-31T06:44:22;25.25;61.29
63976;DHT22;50167;47.958;21.780;2023-07-31T06:46:48;25.00;61.94
63976;DHT22;50167;47.958;21.780;2023-07-31T06:49:14;24.78;62.61
63976;DHT22;50167;47.958;21.780;2023-07-31T06:51:43;25.35;62.32
63976;DHT22;50167;47.958;21.780;2023-07-31T06:54:10;26.31;59.94
63976;DHT22;50167;47.958;21.780;2023-07-31T06:56:36;26.93;57.47
63976;DHT22;50167;47.958;21.780;2023-07-31T06:59:03;26.79;56.55
63976;DHT22;50167;47.958;21.780;2023-07-31T07:01:29;26.27;57.59
63976;DHT22;50167;47.958;21.780;2023-07-31T07:03:55;25.87;58.41
63976;DHT22;50167;47.958;21.780;2023-07-31T07:06:22;25.59;59.87
63976;DHT22;50167;47.958;21.780;2023-07-31T07:08:49;25.39;60.31
63976;DHT22;50167;47.958;21.780;2023-07-31T07:11:15;25.25;60.85
63976;DHT22;50167;47.958;21.780;2023-07-31T07:13:41;25.15;61.29
63976;DHT22;50167;47.958;21.780;2023-07-31T07:16:07;25.08;61.44
63976;DHT22;50167;47.958;21.780;2023-07-31T07:18:34;25.05;61.82
63976;DHT22;50167;47.958;21.780;2023-07-31T07:21:00;25.01;61.71
63976;DHT22;50167;47.958;21.780;2023-07-31T07:23:28;25.00;61.92
63976;DHT22;50167;47.958;21.780;2023-07-31T07:26:00;25.00;60.96
63976;DHT22;50167;47.958;21.780;2023-07-31T07:28:26;25.00;61.47
63976;DHT22;50167;47.958;21.780;2023-07-31T07:30:54;25.00;61.65
63976;DHT22;50167;47.958;21.780;2023-07-31T07:33:20;25.02;61.86
63976;DHT22;50167;47.958;21.780;2023-07-31T07:35:47;25.12;61.50
63976;DHT22;50167;47.958;21.780;2023-07-31T07:38:15;25.21;61.07
63976;DHT22;50167;47.958;21.780;2023-07-31T07:40:42;25.23;60.94
63976;DHT22;50167;47.958;21.780;2023-07-31T07:43:08;25.32;61.02
63976;DHT22;50167;47.958;21.780;2023-07-31T07:45:34;25.38;61.06
63976;DHT22;50167;47.958;21.780;2023-07-31T07:48:00;25.40;60.86
63976;DHT22;50167;47.958;21.780;2023-07-31T07:50:27;25.39;60.77
63976;DHT22;50167;47.958;21.780;2023-07-31T07:52:53;25.48;60.98
63976;DHT22;50167;47.958;21.780;2023-07-31T07:55:19;25.62;60.76
63976;DHT22;50167;47.958;21.780;2023-07-31T07:57:45;25.77;60.92
63976;DHT22;50167;47.958;21.780;2023-07-31T08:00:13;25.90;61.35
63976;DHT22;50167;47.958;21.780;2023-07-31T08:02:39;26.07;60.86
63976;DHT22;50167;47.958;21.780;2023-07-31T08:05:06;26.17;59.76
63976;DHT22;50167;47.958;21.780;2023-07-31T08:07:32;26.30;60.13
63976;DHT22;50167;47.958;21.780;2023-07-31T08:09:59;26.42;59.00
63976;DHT22;50167;47.958;21.780;2023-07-31T08:12:25;26.52;57.52
63976;DHT22;50167;47.958;21.780;2023-07-31T08:14:51;26.64;58.08
63976;DHT22;50167;47.958;21.780;2023-07-31T08:17:17;26.70;56.72
63976;DHT22;50167;47.958;21.780;2023-07-31T08:19:44;26.82;57.43
63976;DHT22;50167;47.958;21.780;2023-07-31T08:22:10;26.96;56.26
63976;DHT22;50167;47.958;21.780;2023-07-31T08:24:37;27.04;56.05
63976;DHT22;50167;47.958;21.780;2023-07-31T08:27:05;27.13;56.25
63976;DHT22;50167;47.958;21.780;2023-07-31T08:29:32;27.20;55.76
63976;DHT22;50167;47.958;21.780;2023-07-31T08:31:58;27.31;55.28
63976;DHT22;50167;47.958;21.780;2023-07-31T08:34:24;27.35;54.49
63976;DHT22;50167;47.958;21.780;2023-07-31T08:36:51;27.48;54.72
63976;DHT22;50167;47.958;21.780;2023-07-31T08:39:17;27.58;54.44
63976;DHT22;50167;47.958;21.780;2023-07-31T08:41:44;27.62;53.88
63976;DHT22;50167;47.958;21.780;2023-07-31T08:44:13;27.51;53.34
63976;DHT22;50167;47.958;21.780;2023-07-31T08:46:39;27.42;54.27
63976;DHT22;50167;47.958;21.780;2023-07-31T08:49:07;27.47;55.02
63976;DHT22;50167;47.958;21.780;2023-07-31T08:51:35;27.44;54.41
63976;DHT22;50167;47.958;21.780;2023-07-31T08:54:02;27.42;55.19
63976;DHT22;50167;47.958;21.780;2023-07-31T08:56:32;27.35;55.01
63976;DHT22;50167;47.958;21.780;2023-07-31T08:59:00;27.20;54.96
63976;DHT22;50167;47.958;21.780;2023-07-31T09:01:30;27.14;54.96
63976;DHT22;50167;47.958;21.780;2023-07-31T09:04:00;27.07;53.90
63976;DHT22;50167;47.958;21.780;2023-07-31T09:06:28;26.99;54.91
63976;DHT22;50167;47.958;21.780;2023-07-31T09:08:55;27.03;54.73
63976;DHT22;50167;47.958;21.780;2023-07-31T09:11:22;27.06;54.72
63976;DHT22;50167;47.958;21.780;2023-07-31T09:13:49;27.13;54.51
63976;DHT22;50167;47.958;21.780;2023-07-31T09:16:16;27.32;55.20
63976;DHT22;50167;47.958;21.780;2023-07-31T09:18:56;27.58;53.73
63976;DHT22;50167;47.958;21.780;2023-07-31T09:21:24;27.80;52.92
63976;DHT22;50167;47.958;21.780;2023-07-31T09:23:51;27.99;52.26
63976;DHT22;50167;47.958;21.780;2023-07-31T09:26:36;28.17;51.88
63976;DHT22;50167;47.958;21.780;2023-07-31T09:29:07;28.30;51.63
63976;DHT22;50167;47.958;21.780;2023-07-31T09:31:42;28.38;51.51
63976;DHT22;50167;47.958;21.780;2023-07-31T09:34:09;28.55;50.05
63976;DHT22;50167;47.958;21.780;2023-07-31T09:39:14;28.74;49.92
63976;DHT22;50167;47.958;21.780;2023-07-31T09:41:55;28.82;51.20
63976;DHT22;50167;47.958;21.780;2023-07-31T09:44:40;28.95;49.99
63976;DHT22;50167;47.958;21.780;2023-07-31T09:47:07;29.20;49.90
63976;DHT22;50167;47.958;21.780;2023-07-31T09:49:35;29.47;48.91
63976;DHT22;50167;47.958;21.780;2023-07-31T09:52:01;29.68;49.20
63976;DHT22;50167;47.958;21.780;2023-07-31T09:54:27;29.74;46.56
63976;DHT22;50167;47.958;21.780;2023-07-31T09:56:54;29.69;47.52
63976;DHT22;50167;47.958;21.780;2023-07-31T09:59:22;29.81;47.28
63976;DHT22;50167;47.958;21.780;2023-07-31T10:01:51;29.92;47.55
63976;DHT22;50167;47.958;21.780;2023-07-31T10:04:20;30.09;46.85
63976;DHT22;50167;47.958;21.780;2023-07-31T10:06:50;30.27;47.00
63976;DHT22;50167;47.958;21.780;2023-07-31T10:09:21;30.27;46.42
63976;DHT22;50167;47.958;21.780;2023-07-31T10:11:55;30.11;46.34
63976;DHT22;50167;47.958;21.780;2023-07-31T10:14:22;29.94;45.86
63976;DHT22;50167;47.958;21.780;2023-07-31T10:16:49;29.79;45.00
63976;DHT22;50167;47.958;21.780;2023-07-31T10:19:18;29.65;45.38
63976;DHT22;50167;47.958;21.780;2023-07-31T10:21:45;29.57;46.01
63976;DHT22;50167;47.958;21.780;2023-07-31T10:24:12;29.61;46.47
63976;DHT22;50167;47.958;21.780;2023-07-31T10:26:39;29.64;46.45
63976;DHT22;50167;47.958;21.780;2023-07-31T10:29:05;29.77;46.59
63976;DHT22;50167;47.958;21.780;2023-07-31T10:31:33;29.87;46.81
63976;DHT22;50167;47.958;21.780;2023-07-31T10:34:00;29.96;47.32
63976;DHT22;50167;47.958;21.780;2023-07-31T10:36:26;29.98;46.58
63976;DHT22;50167;47.958;21.780;2023-07-31T10:38:52;30.04;46.19
63976;DHT22;50167;47.958;21.780;2023-07-31T10:41:31;30.08;45.84
63976;DHT22;50167;47.958;21.780;2023-07-31T10:43:59;30.18;45.37
63976;DHT22;50167;47.958;21.780;2023-07-31T10:46:27;30.26;45.85
63976;DHT22;50167;47.958;21.780;2023-07-31T10:49:02;30.30;46.44
63976;DHT22;50167;47.958;21.780;2023-07-31T10:51:35;30.50;44.75
63976;DHT22;50167;47.958;21.780;2023-07-31T10:54:13;30.66;43.15
63976;DHT22;50167;47.958;21.780;2023-07-31T10:56:52;30.84;43.67
63976;DHT22;50167;47.958;21.780;2023-07-31T10:59:18;30.88;44.58
63976;DHT22;50167;47.958;21.780;2023-07-31T11:01:54;30.91;43.73
63976;DHT22;50167;47.958;21.780;2023-07-31T11:04:25;30.98;44.24
63976;DHT22;50167;47.958;21.780;2023-07-31T11:07:00;30.92;43.54
63976;DHT22;50167;47.958;21.780;2023-07-31T11:09:33;30.74;44.29
63976;DHT22;50167;47.958;21.780;2023-07-31T11:12:00;30.47;44.10
63976;DHT22;50167;47.958;21.780;2023-07-31T11:14:26;30.36;45.18
63976;DHT22;50167;47.958;21.780;2023-07-31T11:16:52;30.46;45.29
63976;DHT22;50167;47.958;21.780;2023-07-31T11:19:26;30.56;45.47
63976;DHT22;50167;47.958;21.780;2023-07-31T11:21:53;30.71;45.26
63976;DHT22;50167;47.958;21.780;2023-07-31T11:24:20;30.74;43.62
63976;DHT22;50167;47.958;21.780;2023-07-31T11:26:52;30.59;44.15
63976;DHT22;50167;47.958;21.780;2023-07-31T11:29:20;30.56;45.11
63976;DHT22;50167;47.958;21.780;2023-07-31T11:31:47;30.50;44.10
63976;DHT22;50167;47.958;21.780;2023-07-31T11:34:14;30.42;45.22
63976;DHT22;50167;47.958;21.780;2023-07-31T11:36:41;30.29;45.51
63976;DHT22;50167;47.958;21.780;2023-07-31T11:39:10;30.23;44.47
63976;DHT22;50167;47.958;21.780;2023-07-31T11:41:40;30.25;44.02
63976;DHT22;50167;47.958;21.780;2023-07-31T11:44:07;30.18;42.74
63976;DHT22;50167;47.958;21.780;2023-07-31T11:46:33;30.05;44.37
63976;DHT22;50167;47.958;21.780;2023-07-31T11:49:00;29.92;45.32
63976;DHT22;50167;47.958;21.780;2023-07-31T11:51:27;29.81;45.91
63976;DHT22;50167;47.958;21.780;2023-07-31T11:53:57;29.68;46.57
63976;DHT22;50167;47.958;21.780;2023-07-31T11:56:25;29.69;45.42
63976;DHT22;50167;47.958;21.780;2023-07-31T11:58:56;29.67;44.18
63976;DHT22;50167;47.958;21.780;2023-07-31T12:01:24;29.63;44.00
63976;DHT22;50167;47.958;21.780;2023-07-31T12:03:51;29.78;44.73
63976;DHT22;50167;47.958;21.780;2023-07-31T12:06:18;30.01;44.92
63976;DHT22;50167;47.958;21.780;2023-07-31T12:08:47;30.26;43.71
63976;DHT22;50167;47.958;21.780;2023-07-31T12:11:13;30.52;44.18
63976;DHT22;50167;47.958;21.780;2023-07-31T12:13:40;30.66;42.74
63976;DHT22;50167;47.958;21.780;2023-07-31T12:16:07;30.64;41.44
63976;DHT22;50167;47.958;21.780;2023-07-31T12:18:35;30.54;41.35
63976;DHT22;50167;47.958;21.780;2023-07-31T12:21:07;30.40;42.12
63976;DHT22;50167;47.958;21.780;2023-07-31T12:23:36;30.34;44.41
63976;DHT22;50167;47.958;21.780;2023-07-31T12:26:14;30.33;43.69
63976;DHT22;50167;47.958;21.780;2023-07-31T12:28:47;30.47;42.89
63976;DHT22;50167;47.958;21.780;2023-07-31T12:31:19;30.70;43.16
63976;DHT22;50167;47.958;21.780;2023-07-31T12:33:48;30.81;43.38
63976;DHT22;50167;47.958;21.780;2023-07-31T12:36:20;30.64;42.64
63976;DHT22;50167;47.958;21.780;2023-07-31T12:38:47;30.43;42.58
63976;DHT22;50167;47.958;21.780;2023-07-31T12:41:13;30.30;43.41
63976;DHT22;50167;47.958;21.780;2023-07-31T12:43:42;30.18;43.63
63976;DHT22;50167;47.958;21.780;2023-07-31T12:46:09;30.30;44.32
63976;DHT22;50167;47.958;21.780;2023-07-31T12:48:37;30.60;43.27
63976;DHT22;50167;47.958;21.780;2023-07-31T12:51:04;31.05;42.62
63976;DHT22;50167;47.958;21.780;2023-07-31T12:53:32;31.46;40.42
63976;DHT22;50167;47.958;21.780;2023-07-31T12:55:59;31.56;40.09
63976;DHT22;50167;47.958;21.780;2023-07-31T12:58:25;31.83;39.37
63976;DHT22;50167;47.958;21.780;2023-07-31T13:00:51;31.77;39.35
63976;DHT22;50167;47.958;21.780;2023-07-31T13:03:17;31.40;39.60
63976;DHT22;50167;47.958;21.780;2023-07-31T13:05:44;31.02;41.84
63976;DHT22;50167;47.958;21.780;2023-07-31T13:11:51;30.19;40.81
63976;DHT22;50167;47.958;21.780;2023-07-31T13:14:28;29.91;43.73
63976;DHT22;50167;47.958;21.780;2023-07-31T13:16:54;29.65;43.87
63976;DHT22;50167;47.958;21.780;2023-07-31T13:19:20;29.46;45.07
63976;DHT22;50167;47.958;21.780;2023-07-31T13:21:47;29.34;46.04
63976;DHT22;50167;47.958;21.780;2023-07-31T13:24:13;29.40;44.16
63976;DHT22;50167;47.958;21.780;2023-07-31T13:26:39;29.48;44.51
63976;DHT22;50167;47.958;21.780;2023-07-31T13:29:05;29.54;44.67
63976;DHT22;50167;47.958;21.780;2023-07-31T13:31:31;29.57;43.84
63976;DHT22;50167;47.958;21.780;2023-07-31T13:33:57;29.57;43.42
63976;DHT22;50167;47.958;21.780;2023-07-31T13:36:24;29.72;43.98
63976;DHT22;50167;47.958;21.780;2023-07-31T13:38:50;30.37;42.58
63976;DHT22;50167;47.958;21.780;2023-07-31T13:41:17;30.71;42.26
63976;DHT22;50167;47.958;21.780;2023-07-31T13:43:43;30.75;40.98
63976;DHT22;50167;47.958;21.780;2023-07-31T13:46:09;30.70;40.84
63976;DHT22;50167;47.958;21.780;2023-07-31T13:48:37;30.64;40.05
63976;DHT22;50167;47.958;21.780;2023-07-31T13:51:03;30.54;40.97
63976;DHT22;50167;47.958;21.780;2023-07-31T13:53:30;30.37;42.38
63976;DHT22;50167;47.958;21.780;2023-07-31T13:55:56;30.30;44.56
63976;DHT22;50167;47.958;21.780;2023-07-31T13:58:23;30.37;44.48
63976;DHT22;50167;47.958;21.780;2023-07-31T14:00:49;30.59;43.89
63976;DHT22;50167;47.958;21.780;2023-07-31T14:03:15;30.84;43.18
63976;DHT22;50167;47.958;21.780;2023-07-31T14:05:41;31.87;42.20
63976;DHT22;50167;47.958;21.780;2023-07-31T14:08:07;33.18;38.34
63976;DHT22;50167;47.958;21.780;2023-07-31T14:10:33;34.32;38.34
63976;DHT22;50167;47.958;21.780;2023-07-31T14:13:00;35.52;36.56
63976;DHT22;50167;47.958;21.780;2023-07-31T14:15:26;36.62;34.52
63976;DHT22;50167;47.958;21.780;2023-07-31T14:17:52;37.44;32.91
63976;DHT22;50167;47.958;21.780;2023-07-31T14:20:19;38.37;31.11
63976;DHT22;50167;47.958;21.780;2023-07-31T14:22:45;38.85;30.42
63976;DHT22;50167;47.958;21.780;2023-07-31T14:25:11;38.54;29.61
63976;DHT22;50167;47.958;21.780;2023-07-31T14:27:37;38.73;29.40
63976;DHT22;50167;47.958;21.780;2023-07-31T14:30:05;39.28;29.71
63976;DHT22;50167;47.958;21.780;2023-07-31T14:32:31;39.57;29.56
63976;DHT22;50167;47.958;21.780;2023-07-31T14:34:58;39.07;29.48
63976;DHT22;50167;47.958;21.780;2023-07-31T14:37:26;39.05;28.28
63976;DHT22;50167;47.958;21.780;2023-07-31T14:39:53;39.36;28.47
63976;DHT22;50167;47.958;21.780;2023-07-31T14:42:19;39.00;28.60
63976;DHT22;50167;47.958;21.780;2023-07-31T14:44:46;38.04;29.73
63976;DHT22;50167;47.958;21.780;2023-07-31T14:47:13;36.96;31.38
63976;DHT22;50167;47.958;21.780;2023-07-31T14:49:39;36.01;33.20
63976;DHT22;50167;47.958;21.780;2023-07-31T14:52:06;35.76;33.83
63976;DHT22;50167;47.958;21.780;2023-07-31T14:54:33;36.34;33.53
63976;DHT22;50167;47.958;21.780;2023-07-31T14:56:59;37.09;31.87
63976;DHT22;50167;47.958;21.780;2023-07-31T14:59:25;37.24;31.10
63976;DHT22;50167;47.958;21.780;2023-07-31T15:01:54;37.64;30.76
63976;DHT22;50167;47.958;21.780;2023-07-31T15:04:20;38.25;30.45
63976;DHT22;50167;47.958;21.780;2023-07-31T15:06:48;39.01;29.22
63976;DHT22;50167;47.958;21.780;2023-07-31T15:09:14;39.69;28.55
63976;DHT22;50167;47.958;21.780;2023-07-31T15:11:40;40.27;27.70
63976;DHT22;50167;47.958;21.780;2023-07-31T15:14:07;40.42;27.67
63976;DHT22;50167;47.958;21.780;2023-07-31T15:16:33;40.00;27.77
63976;DHT22;50167;47.958;21.780;2023-07-31T15:19:00;39.21;27.80
63976;DHT22;50167;47.958;21.780;2023-07-31T15:21:27;38.52;29.17
63976;DHT22;50167;47.958;21.780;2023-07-31T15:23:53;38.45;28.97
63976;DHT22;50167;47.958;21.780;2023-07-31T15:26:19;38.74;29.06
63976;DHT22;50167;47.958;21.780;2023-07-31T15:28:49;38.73;28.65
63976;DHT22;50167;47.958;21.780;2023-07-31T15:31:16;38.62;28.01
63976;DHT22;50167;47.958;21.780;2023-07-31T15:33:42;38.66;28.19